Time;durP1;ratioP1;P1;durP2;ratioP2;P2;SDS_P1;SDS_P2;PMS_P1;PMS_P2;Temp;Humidity;BMP_temperature;BMP_pressure;BME280_temperature;BME280_humidity;BME280_pressure;Samples;Min_cycle;Max_cycle;Signal;HPM_P1;HPM_P2
2024/03/02 00:02:23;;;;;;;7.50;3.70;;;;;;;;;;5091725;28;20056;-81
2024/03/02 00:04:53;;;;;;;9.93;2.53;;;;;;;;;;5074988;28;20481;-81
2024/03/02 00:07:24;;;;;;;6.85;2.70;;;;;;;;;;5091210;28;20063;-81
2024/03/02 00:09:56;;;;;;;7.22;2.47;;;;;;;;;;5091266;28;20044;-81
2024/03/02 00:12:26;;;;;;;14.18;3.08;;;;;;;;;;5072688;28;20478;-82
2024/03/02 00:14:56;;;;;;;10.85;3.00;;;;;;;;;;5071058;28;20053;-82
2024/03/02 00:17:27;;;;;;;9.20;2.47;;;;;;;;;;5070601;28;20052;-81
2024/03/02 00:19:57;;;;;;;8.20;2.92;;;;;;;;;;5072463;28;20045;-81
2024/03/02 00:22:27;;;;;;;12.35;2.72;;;;;;;;;;5070453;28;20067;-80
2024/03/02 00:24:59;;;;;;;6.65;2.60;;;;;;;;;;5072386;28;20048;-81
2024/03/02 00:27:29;;;;;;;8.20;2.90;;;;;;;;;;5071256;28;20048;-81
2024/03/02 00:30:06;;;;;;;5.90;2.58;;;;;;;;;;5071860;28;20053;-81
2024/03/02 00:32:36;;;;;;;7.53;3.60;;;;;;;;;;5071971;28;20052;-81
2024/03/02 00:35:07;;;;;;;11.20;3.00;;;;;;;;;;5071431;28;20052;-81
2024/03/02 00:37:37;;;;;;;8.43;2.90;;;;;;;;;;5053418;28;20456;-81
2024/03/02 00:40:08;;;;;;;9.45;3.20;;;;;;;;;;5070835;28;20621;-81
2024/03/02 00:42:39;;;;;;;10.20;3.17;;;;;;;;;;5070709;28;20045;-82
2024/03/02 00:45:10;;;;;;;10.40;2.88;;;;;;;;;;5070650;28;20052;-80
2024/03/02 00:47:40;;;;;;;10.57;2.78;;;;;;;;;;5071421;28;20044;-81
2024/03/02 00:50:10;;;;;;;6.03;2.58;;;;;;;;;;5053197;28;20055;-81
2024/03/02 00:52:51;;;;;;;9.45;2.70;;;;;;;;;;5071026;28;20052;-80
2024/03/02 00:55:21;;;;;;;9.43;2.63;;;;;;;;;;5070894;28;20490;-81
2024/03/02 00:57:52;;;;;;;8.57;2.75;;;;;;;;;;5070455;28;20056;-80
2024/03/02 01:00:22;;;;;;;7.45;2.30;;;;;;;;;;5070821;28;20063;-80
2024/03/02 01:02:52;;;;;;;11.88;3.05;;;;;;;;;;5071570;28;20056;-81
2024/03/02 01:05:22;;;;;;;5.93;2.90;;;;;;;;;;5070430;28;20044;-79
2024/03/02 01:07:52;;;;;;;8.75;2.60;;;;;;;;;;5071241;28;20044;-80
2024/03/02 01:10:22;;;;;;;8.15;2.72;;;;;;;;;;5071275;28;20047;-80
2024/03/02 01:12:54;;;;;;;26.33;3.30;;;;;;;;;;5090303;28;20056;-80
2024/03/02 01:15:24;;;;;;;9.63;2.72;;;;;;;;;;5090903;28;20056;-80
2024/03/02 01:17:54;;;;;;;11.32;3.03;;;;;;;;;;5091158;28;20048;-80
2024/03/02 01:20:25;;;;;;;12.75;3.40;;;;;;;;;;5090605;28;20048;-81
2024/03/02 01:22:57;;;;;;;8.50;3.70;;;;;;;;;;5092402;28;20040;-81
2024/03/02 01:25:28;;;;;;;11.07;4.05;;;;;;;;;;5088437;28;20052;-80
2024/03/02 01:27:59;;;;;;;7.22;3.33;;;;;;;;;;5091194;28;20048;-80
2024/03/02 01:30:28;;;;;;;10.57;3.17;;;;;;;;;;5090698;28;20052;-80
2024/03/02 01:33:00;;;;;;;7.45;2.83;;;;;;;;;;5087186;28;20048;-80
2024/03/02 01:35:30;;;;;;;10.45;3.10;;;;;;;;;;5089735;28;20052;-80
2024/03/02 01:38:01;;;;;;;8.13;3.58;;;;;;;;;;5089368;28;20479;-80
2024/03/02 01:40:33;;;;;;;8.65;2.90;;;;;;;;;;5089089;28;20067;-80
2024/03/02 01:43:04;;;;;;;11.32;2.85;;;;;;;;;;5089719;28;20044;-80
2024/03/02 01:45:37;;;;;;;15.77;3.20;;;;;;;;;;5090820;28;20044;-80
2024/03/02 01:48:07;;;;;;;10.18;3.58;;;;;;;;;;5093172;28;20089;-80
2024/03/02 01:50:37;;;;;;;7.78;3.17;;;;;;;;;;5093364;28;20055;-80
2024/03/02 01:53:09;;;;;;;9.65;3.28;;;;;;;;;;5094603;28;20161;-80
2024/03/02 01:55:40;;;;;;;6.53;2.92;;;;;;;;;;5093460;28;20052;-80
2024/03/02 01:58:10;;;;;;;7.45;3.47;;;;;;;;;;5092675;28;20418;-81
2024/03/02 02:00:40;;;;;;;9.38;2.80;;;;;;;;;;5075640;28;20504;-81
2024/03/02 02:03:10;;;;;;;11.00;3.15;;;;;;;;;;5096629;28;20074;-81
2024/03/02 02:05:42;;;;;;;7.18;2.60;;;;;;;;;;5094439;28;20055;-81
2024/03/02 02:08:13;;;;;;;7.70;2.80;;;;;;;;;;5095152;28;20052;-81
2024/03/02 02:10:45;;;;;;;9.35;3.10;;;;;;;;;;5095843;28;20052;-81
2024/03/02 02:13:15;;;;;;;11.68;3.13;;;;;;;;;;5077584;28;20083;-81
2024/03/02 02:15:45;;;;;;;8.90;2.88;;;;;;;;;;5077290;28;20532;-81
2024/03/02 02:18:15;;;;;;;9.70;3.42;;;;;;;;;;5095328;28;20529;-81
2024/03/02 02:20:48;;;;;;;8.38;2.95;;;;;;;;;;5096215;28;20517;-79
2024/03/02 02:23:32;;;;;;;18.63;3.67;;;;;;;;;;5093608;28;20059;-80
2024/03/02 02:26:03;;;;;;;11.55;3.30;;;;;;;;;;5096132;28;20048;-80
2024/03/02 02:28:34;;;;;;;10.77;3.50;;;;;;;;;;5077222;28;20048;-80
2024/03/02 02:31:07;;;;;;;11.88;3.53;;;;;;;;;;5094694;28;20044;-79
2024/03/02 02:33:40;;;;;;;9.98;3.58;;;;;;;;;;5095737;28;20055;-79
2024/03/02 02:36:10;;;;;;;10.68;3.42;;;;;;;;;;5094165;28;20079;-80
2024/03/02 02:38:48;;;;;;;12.48;3.10;;;;;;;;;;5094187;28;20402;-80
2024/03/02 02:41:19;;;;;;;12.07;3.17;;;;;;;;;;5095597;28;20044;-79
2024/03/02 02:43:49;;;;;;;12.95;3.00;;;;;;;;;;5093769;28;20490;-79
2024/03/02 02:46:22;;;;;;;7.43;3.60;;;;;;;;;;5094628;28;20051;-81
2024/03/02 02:49:17;;;;;;;10.80;3.35;;;;;;;;;;5093932;28;20055;-80
2024/03/02 02:52:09;;;;;;;13.60;3.70;;;;;;;;;;5094318;28;20052;-81
2024/03/02 02:54:39;;;;;;;10.82;3.95;;;;;;;;;;5095184;28;20039;-81
2024/03/02 02:57:10;;;;;;;13.38;4.55;;;;;;;;;;5093825;28;20051;-79
2024/03/02 02:59:40;;;;;;;11.13;4.53;;;;;;;;;;5093167;28;20385;-80
2024/03/02 03:02:09;;;;;;;11.18;4.25;;;;;;;;;;5096528;28;20048;-80
2024/03/02 03:04:40;;;;;;;11.45;4.20;;;;;;;;;;5094679;28;20055;-82
2024/03/02 03:07:36;;;;;;;10.60;4.63;;;;;;;;;;5095785;28;20048;-79
2024/03/02 03:10:08;;;;;;;21.95;4.68;;;;;;;;;;5075997;28;20490;-81
2024/03/02 03:12:40;;;;;;;13.23;4.35;;;;;;;;;;5093824;28;20044;-80
2024/03/02 03:15:14;;;;;;;12.27;3.85;;;;;;;;;;5095172;28;20044;-80
2024/03/02 03:17:46;;;;;;;12.77;4.28;;;;;;;;;;5093221;28;20041;-80
2024/03/02 03:20:17;;;;;;;10.35;3.47;;;;;;;;;;5092041;28;20052;-81
2024/03/02 03:22:49;;;;;;;8.15;4.05;;;;;;;;;;5091927;28;20506;-81
2024/03/02 03:25:19;;;;;;;7.47;3.50;;;;;;;;;;5091498;28;20048;-80
2024/03/02 03:27:52;;;;;;;12.73;3.28;;;;;;;;;;5092282;28;20047;-81
2024/03/02 03:30:23;;;;;;;;;;;;;;;;;;5093470;28;20044;-80
2024/03/02 03:32:53;;;;;;;9.13;3.03;;;;;;;;;;5092131;28;19927;-81
2024/03/02 03:35:23;;;;;;;7.25;3.30;;;;;;;;;;5094413;28;20118;-81
2024/03/02 03:37:56;;;;;;;11.82;3.53;;;;;;;;;;5093230;28;20405;-81
2024/03/02 03:40:26;;;;;;;6.32;3.42;;;;;;;;;;5093379;28;20418;-81
2024/03/02 03:42:59;;;;;;;10.27;4.70;;;;;;;;;;5093303;28;20048;-81
2024/03/02 03:45:30;;;;;;;10.98;4.13;;;;;;;;;;5094936;28;20107;-82
2024/03/02 03:48:03;;;;;;;7.93;4.03;;;;;;;;;;5092968;28;20052;-81
2024/03/02 03:50:35;;;;;;;12.60;4.63;;;;;;;;;;5092436;28;20412;-81
2024/03/02 03:53:05;;;;;;;10.55;3.97;;;;;;;;;;5092608;28;20120;-80
2024/03/02 03:55:36;;;;;;;13.05;4.53;;;;;;;;;;5092965;28;20122;-81
2024/03/02 03:58:07;;;;;;;10.85;4.07;;;;;;;;;;5094690;28;20040;-80
2024/03/02 04:00:38;;;;;;;15.10;5.05;;;;;;;;;;5092771;28;20387;-80
2024/03/02 04:03:08;;;;;;;15.35;4.03;;;;;;;;;;5093900;28;20036;-82
2024/03/02 04:05:40;;;;;;;11.48;3.90;;;;;;;;;;5093718;28;20048;-80
2024/03/02 04:08:11;;;;;;;15.15;3.97;;;;;;;;;;5094120;28;20055;-80
2024/03/02 04:10:42;;;;;;;10.98;4.40;;;;;;;;;;5091719;28;20406;-80
2024/03/02 04:13:13;;;;;;;11.88;4.30;;;;;;;;;;5092434;28;20430;-80
2024/03/02 04:15:43;;;;;;;12.32;3.72;;;;;;;;;;5093548;28;20070;-81
2024/03/02 04:18:16;;;;;;;13.23;4.05;;;;;;;;;;5092560;28;20056;-82
2024/03/02 04:20:47;;;;;;;11.75;4.13;;;;;;;;;;5092362;28;20059;-81
2024/03/02 04:23:22;;;;;;;11.25;3.72;;;;;;;;;;5092610;28;20478;-80
2024/03/02 04:25:52;;;;;;;14.43;3.63;;;;;;;;;;5092050;28;20051;-81
2024/03/02 04:28:22;;;;;;;11.57;3.50;;;;;;;;;;5092434;28;20052;-82
2024/03/02 04:30:52;;;;;;;11.73;3.78;;;;;;;;;;5093068;28;20052;-82
2024/03/02 04:33:23;;;;;;;11.90;4.07;;;;;;;;;;5092582;28;20054;-82
2024/03/02 04:35:53;;;;;;;9.82;4.72;;;;;;;;;;5093820;28;20052;-81
2024/03/02 04:38:23;;;;;;;12.82;4.70;;;;;;;;;;5093871;28;20047;-80
2024/03/02 04:40:52;;;;;;;14.77;5.60;;;;;;;;;;5092365;28;20410;-80
2024/03/02 04:43:22;;;;;;;11.25;5.18;;;;;;;;;;5091875;28;20063;-80
2024/03/02 04:45:52;;;;;;;10.93;4.70;;;;;;;;;;5091916;28;20075;-81
2024/03/02 04:48:24;;;;;;;9.30;4.53;;;;;;;;;;5092729;28;20052;-81
2024/03/02 04:50:54;;;;;;;16.13;4.50;;;;;;;;;;5092220;28;20505;-80
2024/03/02 04:53:25;;;;;;;14.57;5.05;;;;;;;;;;5093460;28;20043;-81
2024/03/02 04:58:29;;;;;;;14.40;4.65;;;;;;;;;;5092603;28;20048;-80
2024/03/02 05:00:59;;;;;;;11.40;4.07;;;;;;;;;;5092373;28;20048;-80
2024/03/02 05:03:29;;;;;;;13.57;3.92;;;;;;;;;;5075806;28;20049;-80
2024/03/02 05:05:59;;;;;;;10.35;3.78;;;;;;;;;;5072543;28;20356;-80
2024/03/02 05:08:31;;;;;;;9.68;4.15;;;;;;;;;;5072713;28;20049;-80
2024/03/02 05:13:52;;;;;;;12.73;3.28;;;;;;;;;;5071825;28;20079;-80
2024/03/02 05:16:22;;;;;;;13.43;3.60;;;;;;;;;;5091127;28;20056;-80
2024/03/02 05:18:52;;;;;;;12.98;4.00;;;;;;;;;;5091681;28;20059;-81
2024/03/02 05:21:23;;;;;;;11.90;3.45;;;;;;;;;;5092142;28;20494;-81
2024/03/02 05:23:55;;;;;;;15.30;3.90;;;;;;;;;;5095466;28;20055;-82
2024/03/02 05:26:26;;;;;;;7.55;3.70;;;;;;;;;;5095822;28;20509;-82
2024/03/02 05:28:56;;;;;;;10.82;3.75;;;;;;;;;;5095520;28;20056;-81
2024/03/02 05:31:27;;;;;;;10.52;3.63;;;;;;;;;;5095987;28;20429;-81
2024/03/02 05:33:57;;;;;;;12.50;4.40;;;;;;;;;;5095315;28;20056;-81
2024/03/02 05:36:27;;;;;;;8.95;3.50;;;;;;;;;;5058823;28;20049;-82
2024/03/02 05:38:58;;;;;;;13.20;3.60;;;;;;;;;;5058216;28;20045;-81
2024/03/02 05:41:30;;;;;;;15.82;3.38;;;;;;;;;;5075783;28;20051;-81
2024/03/02 05:44:00;;;;;;;6.95;3.63;;;;;;;;;;5090214;28;20048;-81
2024/03/02 05:46:31;;;;;;;8.52;3.47;;;;;;;;;;5095395;28;20044;-81
2024/03/02 05:49:01;;;;;;;7.63;3.88;;;;;;;;;;5097016;28;20048;-81
2024/03/02 05:51:32;;;;;;;9.55;3.30;;;;;;;;;;5094901;28;20055;-81
2024/03/02 05:54:05;;;;;;;16.80;4.63;;;;;;;;;;5095245;28;20513;-80
2024/03/02 05:56:36;;;;;;;17.20;3.55;;;;;;;;;;5095471;28;20055;-80
2024/03/02 05:59:13;;;;;;;14.57;3.90;;;;;;;;;;5096566;28;20406;-80
2024/03/02 06:01:46;;;;;;;;;;;;;;;;;;5097561;28;20055;-80
2024/03/02 06:04:17;;;;;;;10.23;3.72;;;;;;;;;;5095612;28;19920;-81
2024/03/02 06:06:49;;;;;;;12.73;3.58;;;;;;;;;;5094643;28;20059;-81
2024/03/02 06:09:20;;;;;;;12.23;3.97;;;;;;;;;;5096095;28;20051;-81
2024/03/02 06:11:50;;;;;;;9.15;3.60;;;;;;;;;;5096483;28;20075;-81
2024/03/02 06:14:21;;;;;;;9.18;3.15;;;;;;;;;;5095994;28;20074;-80
2024/03/02 06:16:51;;;;;;;8.45;3.17;;;;;;;;;;5095804;28;20071;-80
2024/03/02 06:19:20;;;;;;;12.40;3.38;;;;;;;;;;5095711;28;20371;-81
2024/03/02 06:21:50;;;;;;;10.40;3.45;;;;;;;;;;5094649;28;20060;-79
2024/03/02 06:24:21;;;;;;;11.18;3.85;;;;;;;;;;5094948;28;20056;-81
2024/03/02 06:26:51;;;;;;;8.13;4.18;;;;;;;;;;5094884;28;20079;-79
2024/03/02 06:29:22;;;;;;;12.13;3.90;;;;;;;;;;5094250;28;20482;-80
2024/03/02 06:31:52;;;;;;;14.27;3.85;;;;;;;;;;5094819;28;20060;-81
2024/03/02 06:34:25;;;;;;;11.80;3.67;;;;;;;;;;5095032;28;20492;-81
2024/03/02 06:36:55;;;;;;;14.52;3.95;;;;;;;;;;5094640;28;20055;-81
2024/03/02 06:39:26;;;;;;;11.60;3.63;;;;;;;;;;5094711;28;20055;-82
2024/03/02 06:41:56;;;;;;;9.13;3.15;;;;;;;;;;5094009;28;20059;-81
2024/03/02 06:44:26;;;;;;;8.70;3.45;;;;;;;;;;5094837;28;20059;-81
2024/03/02 06:46:56;;;;;;;13.65;3.90;;;;;;;;;;5093549;28;20095;-82
2024/03/02 06:49:26;;;;;;;9.85;3.67;;;;;;;;;;5094106;28;20060;-81
2024/03/02 06:51:56;;;;;;;12.68;4.20;;;;;;;;;;5095747;28;20478;-81
2024/03/02 06:54:26;;;;;;;13.15;4.20;;;;;;;;;;5094165;28;20060;-81
2024/03/02 06:56:58;;;;;;;;;;;;;;;;;;5096106;28;20048;-81
2024/03/02 06:59:31;;;;;;;14.05;4.10;;;;;;;;;;5094954;28;19927;-81
2024/03/02 07:02:01;;;;;;;10.95;3.58;;;;;;;;;;5093864;28;20048;-82
2024/03/02 07:04:32;;;;;;;10.18;3.60;;;;;;;;;;5095059;28;20048;-82
2024/03/02 07:07:04;;;;;;;10.65;3.75;;;;;;;;;;5095150;28;20051;-82
2024/03/02 07:09:35;;;;;;;12.93;3.80;;;;;;;;;;5095399;28;20051;-82
2024/03/02 07:12:06;;;;;;;11.43;3.53;;;;;;;;;;5095160;28;20044;-82
2024/03/02 07:17:27;;;;;;;10.73;3.60;;;;;;;;;;5095079;28;20063;-82
2024/03/02 07:19:58;;;;;;;8.95;3.50;;;;;;;;;;5094177;28;20052;-82
2024/03/02 07:22:30;;;;;;;12.25;3.50;;;;;;;;;;5094006;28;20051;-82
2024/03/02 07:25:00;;;;;;;11.27;3.90;;;;;;;;;;5088391;28;20049;-82
2024/03/02 07:27:31;;;;;;;7.40;3.38;;;;;;;;;;5076218;28;20467;-82
2024/03/02 07:30:03;;;;;;;10.65;4.05;;;;;;;;;;5074588;28;20052;-82
2024/03/02 07:32:34;;;;;;;14.10;3.80;;;;;;;;;;5076137;28;20063;-78
2024/03/02 07:35:04;;;;;;;10.45;3.65;;;;;;;;;;5092629;28;20060;-78
2024/03/02 07:37:35;;;;;;;12.55;3.75;;;;;;;;;;5093072;28;20070;-78
2024/03/02 07:40:11;;;;;;;16.70;4.53;;;;;;;;;;5093215;28;20068;-80
2024/03/02 07:42:41;;;;;;;14.13;3.65;;;;;;;;;;5076756;28;20052;-82
2024/03/02 07:45:11;;;;;;;13.27;4.00;;;;;;;;;;5074061;28;20041;-82
2024/03/02 07:47:41;;;;;;;10.00;3.90;;;;;;;;;;5073261;28;20143;-82
2024/03/02 07:50:13;;;;;;;7.47;3.53;;;;;;;;;;5073507;28;20048;-82
2024/03/02 07:52:43;;;;;;;9.90;3.67;;;;;;;;;;5055661;28;20521;-82
2024/03/02 07:55:16;;;;;;;14.63;3.90;;;;;;;;;;5055716;28;20049;-82
2024/03/02 07:57:46;;;;;;;11.98;3.47;;;;;;;;;;5073131;28;20063;-82
2024/03/02 08:00:16;;;;;;;11.23;3.70;;;;;;;;;;5055621;28;20518;-81
2024/03/02 08:02:46;;;;;;;9.90;3.88;;;;;;;;;;5079447;28;20044;-82
2024/03/02 08:05:18;;;;;;;13.75;4.40;;;;;;;;;;5073658;28;20868;-81
2024/03/02 08:07:52;;;;;;;14.25;3.97;;;;;;;;;;5079469;28;20483;-82
2024/03/02 08:10:22;;;;;;;8.98;3.95;;;;;;;;;;5083234;28;20044;-81
2024/03/02 08:12:52;;;;;;;11.15;4.07;;;;;;;;;;5092151;28;20066;-82
2024/03/02 08:15:22;;;;;;;9.68;3.60;;;;;;;;;;5092639;28;20074;-82
2024/03/02 08:17:52;;;;;;;13.65;3.60;;;;;;;;;;5092656;28;20059;-82
2024/03/02 08:20:22;;;;;;;16.90;3.80;;;;;;;;;;5091871;28;20063;-82
2024/03/02 08:22:54;;;;;;;12.85;3.55;;;;;;;;;;5074885;28;20063;-82
2024/03/02 08:25:24;;;;;;;;;;;;;;;;;;5093770;28;20059;-81
2024/03/02 08:27:54;;;;;;;17.27;3.42;;;;;;;;;;5092894;28;19931;-82
2024/03/02 08:30:26;;;;;;;;;;;;;;;;;;5094567;28;20044;-82
2024/03/02 08:32:57;;;;;;;8.82;3.85;;;;;;;;;;5094002;28;19927;-82
2024/03/02 08:35:28;;;;;;;12.07;4.07;;;;;;;;;;5092496;28;20044;-82
2024/03/02 08:37:58;;;;;;;15.65;4.20;;;;;;;;;;5092363;28;20063;-82
2024/03/02 08:40:28;;;;;;;10.80;4.32;;;;;;;;;;5093018;28;20055;-82
2024/03/02 08:42:58;;;;;;;14.00;4.82;;;;;;;;;;5092945;28;20060;-81
2024/03/02 08:45:30;;;;;;;9.80;4.40;;;;;;;;;;5093206;28;20052;-82
2024/03/02 08:48:01;;;;;;;11.45;4.05;;;;;;;;;;5092545;28;20051;-82
2024/03/02 08:50:31;;;;;;;14.07;4.40;;;;;;;;;;5092347;28;20059;-81
2024/03/02 08:53:03;;;;;;;13.60;4.03;;;;;;;;;;5092462;28;20175;-82
2024/03/02 08:55:33;;;;;;;12.38;3.53;;;;;;;;;;5092482;28;20048;-82
2024/03/02 08:58:04;;;;;;;10.07;3.45;;;;;;;;;;5074012;28;20056;-82
2024/03/02 09:00:35;;;;;;;8.18;3.28;;;;;;;;;;5092451;28;20048;-82
2024/03/02 09:03:05;;;;;;;17.33;4.25;;;;;;;;;;5092768;28;20044;-81
2024/03/02 09:05:37;;;;;;;12.73;3.70;;;;;;;;;;5092137;28;20050;-82
2024/03/02 09:08:09;;;;;;;13.35;3.95;;;;;;;;;;5093587;28;20047;-82
2024/03/02 09:10:42;;;;;;;8.43;4.53;;;;;;;;;;5091610;28;20051;-81
2024/03/02 09:13:12;;;;;;;11.70;4.10;;;;;;;;;;5093300;28;20071;-81
2024/03/02 09:15:42;;;;;;;13.75;3.80;;;;;;;;;;5093038;28;20052;-81
2024/03/02 09:18:15;;;;;;;12.18;3.50;;;;;;;;;;5092786;28;20044;-81
2024/03/02 09:20:49;;;;;;;12.95;3.97;;;;;;;;;;5091887;28;20051;-81
2024/03/02 09:23:19;;;;;;;10.18;3.53;;;;;;;;;;5092526;28;20075;-81
2024/03/02 09:25:51;;;;;;;9.40;4.30;;;;;;;;;;5091829;28;20048;-81
2024/03/02 09:28:21;;;;;;;12.13;4.20;;;;;;;;;;5092013;28;20056;-82
2024/03/02 09:30:52;;;;;;;10.30;4.13;;;;;;;;;;5091892;28;20048;-82
2024/03/02 09:33:27;;;;;;;10.32;3.60;;;;;;;;;;5092983;28;20055;-81
2024/03/02 09:35:57;;;;;;;8.45;3.58;;;;;;;;;;5075086;28;20059;-81
2024/03/02 09:38:29;;;;;;;13.70;3.80;;;;;;;;;;5092152;28;20063;-81
2024/03/02 09:41:01;;;;;;;13.40;3.90;;;;;;;;;;5093098;28;20044;-81
2024/03/02 09:43:32;;;;;;;11.38;3.67;;;;;;;;;;5093405;28;20048;-81
2024/03/02 09:46:04;;;;;;;10.68;3.75;;;;;;;;;;5092767;28;20036;-82
2024/03/02 09:48:34;;;;;;;10.60;3.70;;;;;;;;;;5091051;28;20490;-82
2024/03/02 09:51:05;;;;;;;10.10;3.83;;;;;;;;;;5091594;28;20411;-83
2024/03/02 09:53:36;;;;;;;14.30;3.65;;;;;;;;;;5091679;28;20052;-82
2024/03/02 09:56:07;;;;;;;10.77;3.85;;;;;;;;;;5074277;28;20502;-82
2024/03/02 09:58:38;;;;;;;11.60;4.07;;;;;;;;;;5092721;28;20044;-82
2024/03/02 10:01:10;;;;;;;9.50;3.60;;;;;;;;;;5092745;28;20048;-83
2024/03/02 10:03:41;;;;;;;10.57;3.53;;;;;;;;;;5093067;28;20063;-83
2024/03/02 10:06:21;;;;;;;11.35;3.65;;;;;;;;;;5091810;28;20508;-81
2024/03/02 10:08:53;;;;;;;6.57;3.70;;;;;;;;;;5094347;28;20384;-81
2024/03/02 10:11:42;;;;;;;7.30;3.35;;;;;;;;;;5096317;28;20048;-81
2024/03/02 10:14:14;;;;;;;9.73;3.42;;;;;;;;;;5094949;28;20059;-81
2024/03/02 10:16:46;;;;;;;12.73;3.47;;;;;;;;;;5095393;28;20048;-82
2024/03/02 10:19:22;;;;;;;14.55;4.28;;;;;;;;;;5096601;28;20040;-81
2024/03/02 10:21:54;;;;;;;12.13;4.60;;;;;;;;;;5095221;28;20396;-82
2024/03/02 10:24:28;;;;;;;12.93;4.68;;;;;;;;;;5095006;28;20055;-82
2024/03/02 10:27:00;;;;;;;9.77;4.22;;;;;;;;;;5096340;28;20055;-82
2024/03/02 10:29:32;;;;;;;8.93;3.67;;;;;;;;;;5095986;28;20060;-82
2024/03/02 10:32:03;;;;;;;11.00;4.00;;;;;;;;;;5094693;28;20060;-82
2024/03/02 10:34:34;;;;;;;8.63;3.83;;;;;;;;;;5095042;28;20504;-82
2024/03/02 10:37:05;;;;;;;14.93;3.67;;;;;;;;;;5095756;28;20044;-81
2024/03/02 10:39:39;;;;;;;11.63;4.15;;;;;;;;;;5095432;28;20044;-81
2024/03/02 10:42:11;;;;;;;11.07;3.38;;;;;;;;;;5094271;28;20055;-81
2024/03/02 10:44:42;;;;;;;;;;;;;;;;;;5091137;28;20049;-81
2024/03/02 10:47:14;;;;;;;10.32;3.17;;;;;;;;;;5077550;28;19921;-82
2024/03/02 10:49:49;;;;;;;11.32;3.38;;;;;;;;;;5073942;28;20041;-82
2024/03/02 10:52:22;;;;;;;6.97;3.13;;;;;;;;;;5073708;28;20491;-80
2024/03/02 10:54:52;;;;;;;14.82;2.78;;;;;;;;;;5074180;28;20060;-81
2024/03/02 10:57:27;;;;;;;10.90;2.63;;;;;;;;;;5073687;28;20052;-81
2024/03/02 11:00:03;;;;;;;12.00;2.90;;;;;;;;;;5074077;28;20044;-81
2024/03/02 11:02:37;;;;;;;8.50;3.08;;;;;;;;;;5073828;28;20441;-82
2024/03/02 11:05:10;;;;;;;8.88;2.92;;;;;;;;;;5073831;28;20055;-81
2024/03/02 11:07:42;;;;;;;6.53;2.80;;;;;;;;;;5073391;28;20482;-81
2024/03/02 11:10:14;;;;;;;4.47;2.15;;;;;;;;;;5074795;28;20048;-81
2024/03/02 11:12:58;;;;;;;;;;;;;;;;;;5075294;28;20045;-82
2024/03/02 11:15:28;;;;;;;8.05;2.00;;;;;;;;;;5056132;28;19927;-81
2024/03/02 11:18:00;;;;;;;7.93;1.92;;;;;;;;;;5075105;28;20041;-80
2024/03/02 11:20:31;;;;;;;4.60;1.50;;;;;;;;;;5074347;28;20044;-81
2024/03/02 11:23:08;;;;;;;4.25;1.75;;;;;;;;;;5074738;28;20044;-80
2024/03/02 11:25:39;;;;;;;3.08;1.48;;;;;;;;;;5075076;28;20110;-80
2024/03/02 11:28:11;;;;;;;5.97;1.83;;;;;;;;;;5074383;28;20044;-81
2024/03/02 11:30:42;;;;;;;4.20;1.60;;;;;;;;;;5074005;28;20406;-81
2024/03/02 11:33:13;;;;;;;4.93;1.30;;;;;;;;;;5056623;28;20048;-80
2024/03/02 11:35:48;;;;;;;3.35;1.88;;;;;;;;;;5074196;28;20056;-80
2024/03/02 11:38:19;;;;;;;4.45;1.75;;;;;;;;;;5074455;28;20045;-80
2024/03/02 11:40:49;;;;;;;3.08;1.55;;;;;;;;;;5074776;28;20044;-80
2024/03/02 11:43:21;;;;;;;4.13;1.30;;;;;;;;;;5074475;28;20052;-81
2024/03/02 11:45:58;;;;;;;3.40;1.45;;;;;;;;;;5074044;28;20040;-81
2024/03/02 11:48:29;;;;;;;3.67;1.50;;;;;;;;;;5074083;28;20060;-82
2024/03/02 11:51:01;;;;;;;;;;;;;;;;;;5074285;28;20048;-81
2024/03/02 11:53:34;;;;;;;2.85;1.33;;;;;;;;;;5073820;28;19931;-82
2024/03/02 11:56:09;;;;;;;4.72;1.48;;;;;;;;;;5074086;28;20037;-79
2024/03/02 11:58:41;;;;;;;4.03;1.50;;;;;;;;;;5074515;28;20071;-80
2024/03/02 12:01:15;;;;;;;2.08;1.20;;;;;;;;;;5073504;28;20494;-80
2024/03/02 12:03:52;;;;;;;3.45;1.20;;;;;;;;;;5074826;28;20067;-80
2024/03/02 12:06:23;;;;;;;3.97;1.20;;;;;;;;;;5056904;28;20052;-81
2024/03/02 12:08:54;;;;;;;5.88;1.33;;;;;;;;;;5073622;28;20044;-81
2024/03/02 12:11:24;;;;;;;;;;;;;;;;;;5074112;28;20040;-82
2024/03/02 12:13:55;;;;;;;7.20;1.33;;;;;;;;;;5074393;28;20286;-82
2024/03/02 12:16:25;;;;;;;3.60;1.55;;;;;;;;;;5064818;28;20048;-82
2024/03/02 12:18:55;;;;;;;7.20;1.30;;;;;;;;;;5093758;28;20067;-81
2024/03/02 12:21:28;;;;;;;5.47;1.50;;;;;;;;;;5075041;28;20059;-81
2024/03/02 12:23:59;;;;;;;3.97;1.45;;;;;;;;;;5093815;28;20036;-81
2024/03/02 12:26:30;;;;;;;3.67;1.13;;;;;;;;;;5075933;28;20048;-81
2024/03/02 12:29:00;;;;;;;2.88;1.40;;;;;;;;;;5093691;28;20417;-81
2024/03/02 12:31:32;;;;;;;3.55;1.30;;;;;;;;;;5093023;28;20052;-79
2024/03/02 12:34:03;;;;;;;;;;;;;;;;;;5094787;28;20047;-81
2024/03/02 12:36:42;;;;;;;5.60;1.73;;;;;;;;;;5074872;28;19920;-82
2024/03/02 12:39:13;;;;;;;2.78;1.17;;;;;;;;;;5093793;28;20044;-83
2024/03/02 12:41:43;;;;;;;3.83;1.33;;;;;;;;;;5093855;28;20513;-82
2024/03/02 12:44:14;;;;;;;1.95;1.33;;;;;;;;;;5093738;28;20040;-82
2024/03/02 12:46:45;;;;;;;5.45;1.30;;;;;;;;;;5092685;28;20047;-82
2024/03/02 12:49:16;;;;;;;3.00;1.20;;;;;;;;;;5074810;28;20048;-84
2024/03/02 12:51:47;;;;;;;3.97;1.52;;;;;;;;;;5092831;28;20040;-82
2024/03/02 12:54:18;;;;;;;4.35;1.60;;;;;;;;;;5073725;28;20045;-81
2024/03/02 12:56:49;;;;;;;5.53;2.38;;;;;;;;;;5054977;28;20391;-84
2024/03/02 12:59:21;;;;;;;5.57;1.95;;;;;;;;;;5054521;28;20048;-82
2024/03/02 13:01:59;;;;;;;4.78;2.13;;;;;;;;;;5056534;28;20052;-83
2024/03/02 13:04:30;;;;;;;4.82;1.50;;;;;;;;;;5073750;28;20052;-84
2024/03/02 13:07:02;;;;;;;2.70;1.48;;;;;;;;;;5072891;28;20379;-84
2024/03/02 13:09:34;;;;;;;4.53;1.50;;;;;;;;;;5054943;28;20386;-84
2024/03/02 13:12:05;;;;;;;4.03;1.30;;;;;;;;;;5073012;28;20479;-85
2024/03/02 13:14:36;;;;;;;3.92;1.67;;;;;;;;;;5073223;28;20037;-85
2024/03/02 13:17:09;;;;;;;3.20;1.38;;;;;;;;;;5073217;28;20044;-84
2024/03/02 13:19:53;;;;;;;2.38;2.08;;;;;;;;;;5054979;28;20450;-83
2024/03/02 13:22:24;;;;;;;2.80;1.35;;;;;;;;;;5055423;28;20356;-86
2024/03/02 13:24:56;;;;;;;3.50;1.67;;;;;;;;;;5073342;28;20049;-84
2024/03/02 13:27:27;;;;;;;2.70;1.10;;;;;;;;;;5073049;28;20041;-84
2024/03/02 13:29:58;;;;;;;2.60;1.10;;;;;;;;;;5072861;28;20506;-83
2024/03/02 13:32:29;;;;;;;2.45;1.20;;;;;;;;;;5054378;28;20502;-84
2024/03/02 13:35:02;;;;;;;3.75;1.10;;;;;;;;;;5073567;28;20044;-83
2024/03/02 13:37:33;;;;;;;3.95;1.27;;;;;;;;;;5055447;28;20063;-82
2024/03/02 13:40:05;;;;;;;3.33;1.17;;;;;;;;;;5073116;28;20049;-84
2024/03/02 13:42:35;;;;;;;2.72;1.05;;;;;;;;;;5073831;28;20060;-87
2024/03/02 13:45:07;;;;;;;2.15;0.90;;;;;;;;;;5058822;28;20459;-83
2024/03/02 13:47:38;;;;;;;1.85;1.00;;;;;;;;;;5043019;28;20386;-86
2024/03/02 13:50:09;;;;;;;6.00;1.23;;;;;;;;;;5076939;28;20048;-83
2024/03/02 13:52:39;;;;;;;2.72;0.95;;;;;;;;;;5075125;28;20510;-84
2024/03/02 13:55:10;;;;;;;2.22;1.00;;;;;;;;;;5067786;28;20498;-84
2024/03/02 13:57:40;;;;;;;1.40;0.75;;;;;;;;;;5075818;28;20491;-84
2024/03/02 14:00:12;;;;;;;9.27;3.40;;;;;;;;;;5058397;28;20048;-84
2024/03/02 14:02:42;;;;;;;2.03;1.02;;;;;;;;;;5059010;28;20458;-85
2024/03/02 14:05:13;;;;;;;2.63;1.00;;;;;;;;;;5076124;28;20048;-83
2024/03/02 14:07:45;;;;;;;2.60;1.05;;;;;;;;;;5059378;28;20049;-87
2024/03/02 14:10:16;;;;;;;2.78;1.10;;;;;;;;;;5076344;28;20036;-86
2024/03/02 14:12:47;;;;;;;3.47;1.10;;;;;;;;;;5058757;28;20509;-86
2024/03/02 14:15:19;;;;;;;2.58;1.00;;;;;;;;;;5076454;28;20047;-86
2024/03/02 14:17:50;;;;;;;;;;;;;;;;;;5076969;28;20052;-84
2024/03/02 14:20:21;;;;;;;2.05;1.13;;;;;;;;;;5076520;28;19920;-86
2024/03/02 14:22:53;;;;;;;1.85;0.95;;;;;;;;;;5076603;28;20036;-82
2024/03/02 14:25:25;;;;;;;2.92;1.23;;;;;;;;;;5058693;28;20051;-83
2024/03/02 14:27:56;;;;;;;2.80;0.90;;;;;;;;;;5076411;28;20040;-83
2024/03/02 14:30:47;;;;;;;1.67;0.90;;;;;;;;;;5060459;28;20059;-83
2024/03/02 14:33:20;;;;;;;1.75;0.90;;;;;;;;;;5076263;28;20475;-86
2024/03/02 14:35:51;;;;;;;;;;;;;;;;;;5057621;28;20052;-83
2024/03/02 14:38:21;;;;;;;3.15;1.15;;;;;;;;;;5061851;28;19924;-82
2024/03/02 14:40:51;;;;;;;3.97;1.23;;;;;;;;;;5086085;28;20055;-83
2024/03/02 14:43:22;;;;;;;7.78;1.33;;;;;;;;;;5066836;28;20051;-84
2024/03/02 14:45:52;;;;;;;2.10;1.13;;;;;;;;;;5084291;28;20045;-85
2024/03/02 14:48:22;;;;;;;1.70;1.00;;;;;;;;;;5083819;28;20052;-84
2024/03/02 14:50:52;;;;;;;2.15;1.20;;;;;;;;;;5066214;28;20060;-84
2024/03/02 14:53:22;;;;;;;2.53;0.80;;;;;;;;;;5092501;28;20045;-84
2024/03/02 14:55:52;;;;;;;3.05;1.08;;;;;;;;;;5093538;28;20049;-86
2024/03/02 14:58:26;;;;;;;2.17;0.93;;;;;;;;;;5093834;28;20051;-84
2024/03/02 15:00:56;;;;;;;1.67;1.02;;;;;;;;;;5082009;28;20054;-81
2024/03/02 15:03:26;;;;;;;2.55;1.00;;;;;;;;;;5082376;28;20048;-83
2024/03/02 15:05:57;;;;;;;4.38;0.80;;;;;;;;;;5081371;28;20067;-84
2024/03/02 15:08:29;;;;;;;2.42;0.80;;;;;;;;;;5098987;28;20028;-83
2024/03/02 15:11:00;;;;;;;1.08;0.70;;;;;;;;;;5081162;28;20078;-82
2024/03/02 15:13:33;;;;;;;1.38;0.80;;;;;;;;;;5059788;28;20044;-85
2024/03/02 15:16:04;;;;;;;1.92;0.95;;;;;;;;;;5075922;28;20045;-86